Time;durP1;ratioP1;P1;durP2;ratioP2;P2;SDS_P1;SDS_P2;PMS_P1;PMS_P2;Temp;Humidity;BMP_temperature;BMP_pressure;BME280_temperature;BME280_humidity;BME280_pressure;Samples;Min_cycle;Max_cycle;Signal;HPM_P1;HPM_P2
2023/02/24 00:01:50;;;;;;;;;;;27.80;91.40;;;;;;5066450;28;20035;-66
2023/02/24 00:04:19;;;;;;;3.97;1.27;;;27.80;87.80;;;;;;5039967;28;19956;-66
2023/02/24 00:06:47;;;;;;;4.35;1.08;;;27.90;84.80;;;;;;5047726;28;20029;-67
2023/02/24 00:09:20;;;;;;;9.18;1.58;;;28.00;89.40;;;;;;5045421;28;20536;-67
2023/02/24 00:12:03;;;;;;;4.75;1.05;;;28.00;84.40;;;;;;5043926;28;20079;-67
2023/02/24 00:14:32;;;;;;;5.90;0.82;;;27.90;81.20;;;;;;5047740;28;20497;-67
2023/02/24 00:17:00;;;;;;;6.90;1.30;;;27.50;83.90;;;;;;5043612;28;20037;-61
2023/02/24 00:19:33;;;;;;;6.13;1.30;;;27.70;85.30;;;;;;5041945;28;20040;-61
2023/02/24 00:22:02;;;;;;;6.68;1.42;;;27.90;84.50;;;;;;5041413;28;20056;-60
2023/02/24 00:24:30;;;;;;;5.63;1.05;;;28.50;83.00;;;;;;5044477;28;20433;-60
2023/02/24 00:26:59;;;;;;;3.97;1.15;;;28.70;78.50;;;;;;5042634;28;20025;-60
2023/02/24 00:29:28;;;;;;;6.10;1.27;;;28.30;80.20;;;;;;5042806;28;20025;-63
2023/02/24 00:32:05;;;;;;;5.47;1.33;;;28.50;81.50;;;;;;5040990;28;20041;-60
2023/02/24 00:34:35;;;;;;;4.45;0.95;;;28.50;79.00;;;;;;5040134;28;20038;-61
2023/02/24 00:37:05;;;;;;;3.83;0.90;;;28.10;76.40;;;;;;5043428;28;20064;-60
2023/02/24 00:39:34;;;;;;;8.02;1.13;;;27.50;81.30;;;;;;5044366;28;20024;-61
2023/02/24 00:42:03;;;;;;;6.35;1.50;;;26.90;85.70;;;;;;5045475;28;20029;-65
2023/02/24 00:44:32;;;;;;;4.82;1.05;;;26.50;87.00;;;;;;5047374;28;20021;-68
2023/02/24 00:47:03;;;;;;;10.70;1.30;;;26.10;89.90;;;;;;5060953;28;20021;-68
2023/02/24 00:49:31;;;;;;;5.30;2.13;;;26.10;90.80;;;;;;5048611;28;20021;-66
2023/02/24 00:51:59;;;;;;;5.13;0.88;;;26.10;91.80;;;;;;5047711;28;20112;-67
2023/02/24 00:54:27;;;;;;;5.18;1.02;;;26.10;91.00;;;;;;5048074;28;20104;-69
2023/02/24 00:56:55;;;;;;;4.15;0.90;;;26.10;90.80;;;;;;5055757;28;20477;-68
2023/02/24 00:59:24;;;;;;;6.10;1.30;;;26.00;91.00;;;;;;5050758;28;20074;-69
2023/02/24 01:01:53;;;;;;;4.53;1.27;;;26.00;91.50;;;;;;5048032;28;20081;-68
2023/02/24 01:04:21;;;;;;;5.75;1.08;;;25.90;91.00;;;;;;5047764;28;20029;-69
2023/02/24 01:06:51;;;;;;;5.45;1.13;;;25.90;91.90;;;;;;5045394;28;20093;-69
2023/02/24 01:09:20;;;;;;;7.32;1.10;;;25.80;92.00;;;;;;5038770;28;20033;-70
2023/02/24 01:14:51;;;;;;;6.82;1.30;;;25.70;93.50;;;;;;5025422;28;20044;-68
2023/02/24 01:17:19;;;;;;;3.22;0.80;;;25.60;93.10;;;;;;5046505;28;20093;-70
2023/02/24 01:19:49;;;;;;;6.90;1.30;;;25.60;93.10;;;;;;5042386;28;20450;-69
2023/02/24 01:22:18;;;;;;;4.60;1.10;;;25.70;93.70;;;;;;5060030;28;20029;-70
2023/02/24 01:24:47;;;;;;;7.80;1.20;;;26.00;93.30;;;;;;5049725;28;20029;-71
2023/02/24 01:27:18;;;;;;;4.68;1.02;;;26.40;92.30;;;;;;5063447;28;20029;-72
2023/02/24 01:29:49;;;;;;;3.90;1.20;;;26.60;91.10;;;;;;5046961;28;20034;-70
2023/02/24 01:32:21;;;;;;;6.20;1.58;;;26.70;90.90;;;;;;5049910;28;20044;-69
2023/02/24 01:34:51;;;;;;;3.90;1.35;;;26.80;93.50;;;;;;5055592;28;20367;-69
2023/02/24 01:37:19;;;;;;;6.65;1.30;;;27.00;91.90;;;;;;5050574;28;20138;-70
2023/02/24 01:39:47;;;;;;;7.65;1.38;;;27.10;90.00;;;;;;5048177;28;20033;-70
2023/02/24 01:42:18;;;;;;;5.68;0.93;;;27.10;91.00;;;;;;5048345;28;20563;-71
2023/02/24 01:44:46;;;;;;;7.35;1.30;;;27.10;89.80;;;;;;5048093;28;20464;-70
2023/02/24 01:47:19;;;;;;;4.25;1.25;;;27.10;88.50;;;;;;5047075;28;20017;-69
2023/02/24 01:49:51;;;;;;;4.35;1.08;;;27.10;90.90;;;;;;5055284;28;20033;-70
2023/02/24 01:52:37;;;;;;;5.70;1.30;;;27.10;90.30;;;;;;5052161;28;20021;-70
2023/02/24 01:55:22;;;;;;;5.07;1.20;;;27.10;89.30;;;;;;5065401;28;20107;-69
2023/02/24 01:57:49;;;;;;;;;;;27.20;92.20;;;;;;5061482;28;20114;-70
2023/02/24 02:00:35;;;;;;;12.70;1.55;;;27.30;91.60;;;;;;5046209;28;19982;-70
2023/02/24 02:03:52;;;;;;;6.93;1.00;;;27.60;91.30;;;;;;5046699;28;20017;-69
2023/02/24 02:06:19;;;;;;;9.07;1.20;;;27.60;89.20;;;;;;4983629;28;20663;-71
2023/02/24 02:08:47;;;;;;;3.17;0.93;;;27.50;88.60;;;;;;4985390;28;20639;-69
2023/02/24 02:11:19;;;;;;;5.90;1.45;;;27.50;91.90;;;;;;5014540;28;20045;-71
2023/02/24 02:13:49;;;;;;;4.15;1.00;;;27.70;90.40;;;;;;5051042;28;20163;-70
2023/02/24 02:16:32;;;;;;;5.18;1.38;;;27.80;90.70;;;;;;5050841;28;20025;-70
2023/02/24 02:19:27;;;;;;;6.43;1.42;;;28.10;92.10;;;;;;5052596;28;20033;-70
2023/02/24 02:22:31;;;;;;;4.95;1.25;;;28.40;90.20;;;;;;5056985;28;20086;-70
2023/02/24 02:25:08;;;;;;;6.03;1.58;;;28.40;89.00;;;;;;5047659;28;20025;-69
2023/02/24 02:28:23;;;;;;;7.03;1.20;;;28.30;88.10;;;;;;5051462;28;20031;-71
2023/02/24 02:31:05;;;;;;;;;;;28.20;90.40;;;;;;5048523;28;20033;-72
2023/02/24 02:33:41;;;;;;;4.03;1.10;;;28.40;90.40;;;;;;5049700;28;19924;-72
2023/02/24 02:36:21;;;;;;;9.18;1.90;;;28.80;91.50;;;;;;5047195;28;20036;-71
2023/02/24 02:39:10;;;;;;;4.95;1.80;;;28.70;85.70;;;;;;5053365;28;20021;-72
2023/02/24 02:41:54;;;;;;;6.63;1.40;;;28.50;84.80;;;;;;5041903;28;20039;-72
2023/02/24 02:44:43;;;;;;;6.32;1.77;;;29.10;91.00;;;;;;5060950;28;20539;-73
2023/02/24 02:47:22;;;;;;;5.78;1.35;;;29.90;90.50;;;;;;5050694;28;20139;-73
2023/02/24 02:49:57;;;;;;;7.75;1.88;;;30.60;81.50;;;;;;5051132;28;20106;-73
2023/02/24 02:53:11;;;;;;;4.93;1.25;;;31.40;76.50;;;;;;5073620;28;20090;-71
2023/02/24 02:55:45;;;;;;;5.68;1.02;;;31.30;67.70;;;;;;5025461;28;20494;-70
2023/02/24 02:58:21;;;;;;;3.90;1.10;;;31.50;64.50;;;;;;5049039;28;20033;-70
2023/02/24 03:01:01;;;;;;;2.85;0.60;;;30.90;64.80;;;;;;5052313;28;20043;-70
2023/02/24 03:03:42;;;;;;;5.15;1.38;;;30.30;66.90;;;;;;5051801;28;20021;-68
2023/02/24 03:06:18;;;;;;;6.53;1.00;;;29.70;67.10;;;;;;5048651;28;20021;-70
2023/02/24 03:09:17;;;;;;;3.28;0.98;;;28.50;69.50;;;;;;5051899;28;20029;-70
2023/02/24 03:11:58;;;;;;;3.70;1.13;;;28.00;72.60;;;;;;5053727;28;20082;-68
2023/02/24 03:14:33;;;;;;;7.55;1.42;;;27.40;78.80;;;;;;5048061;28;20032;-68
2023/02/24 03:17:03;;;;;;;12.43;2.78;;;26.70;84.70;;;;;;5050843;28;20028;-68
2023/02/24 03:19:37;;;;;;;9.80;3.03;;;25.90;91.10;;;;;;5046367;28;20033;-67
2023/02/24 03:22:16;;;;;;;9.48;1.73;;;25.30;93.90;;;;;;5045668;28;20021;-66
2023/02/24 03:24:44;;;;;;;7.78;1.23;;;25.10;96.10;;;;;;5045344;28;20075;-68
2023/02/24 03:27:22;;;;;;;5.93;1.10;;;25.00;96.80;;;;;;5050833;28;20036;-67
2023/02/24 03:30:15;;;;;;;6.20;1.15;;;25.20;96.90;;;;;;5050075;28;20053;-68
2023/02/24 03:32:57;;;;;;;5.78;1.30;;;25.40;96.60;;;;;;5046568;28;20045;-67
2023/02/24 03:35:30;;;;;;;14.82;3.28;;;25.40;96.40;;;;;;5047411;28;20033;-66
2023/02/24 03:37:59;;;;;;;5.05;1.60;;;25.50;96.40;;;;;;5059626;28;20032;-65
2023/02/24 03:40:28;;;;;;;4.05;0.80;;;25.70;95.60;;;;;;5048964;28;20077;-68
2023/02/24 03:43:24;;;;;;;4.68;1.05;;;25.70;94.50;;;;;;5044310;28;20482;-67
2023/02/24 03:45:52;;;;;;;3.28;0.90;;;25.70;94.50;;;;;;5048091;28;20443;-66
2023/02/24 03:48:21;;;;;;;7.25;1.42;;;25.90;95.00;;;;;;5047677;28;20028;-68
2023/02/24 03:50:49;;;;;;;6.05;1.65;;;26.10;93.60;;;;;;5045545;28;20039;-68
2023/02/24 03:53:41;;;;;;;4.35;0.80;;;26.20;93.80;;;;;;5041804;28;20086;-68
2023/02/24 03:56:09;;;;;;;4.15;0.65;;;26.40;93.40;;;;;;5046322;28;20574;-67
2023/02/24 03:59:04;;;;;;;4.28;0.70;;;26.50;91.70;;;;;;5054615;28;20196;-66
2023/02/24 04:01:48;;;;;;;6.68;1.05;;;26.80;92.90;;;;;;5040360;28;20033;-67
2023/02/24 04:04:59;;;;;;;6.10;1.20;;;27.00;89.40;;;;;;5054472;28;20439;-66
2023/02/24 04:07:33;;;;;;;2.35;0.90;;;27.00;81.60;;;;;;4966175;28;20089;-68
2023/02/24 04:10:25;;;;;;;1.80;0.70;;;27.00;85.90;;;;;;5034989;28;20581;-69
2023/02/24 04:12:55;;;;;;;5.47;0.60;;;27.30;87.40;;;;;;5048837;28;20508;-66
2023/02/24 04:15:37;;;;;;;3.20;0.93;;;27.00;86.40;;;;;;5052039;28;20031;-67
2023/02/24 04:18:20;;;;;;;8.07;1.20;;;26.50;87.30;;;;;;5049621;28;20075;-68
2023/02/24 04:20:51;;;;;;;4.75;1.25;;;26.20;88.90;;;;;;5058658;28;20043;-66
2023/02/24 04:23:27;;;;;;;4.15;0.80;;;25.90;90.50;;;;;;5055424;28;20078;-67
2023/02/24 04:25:55;;;;;;;5.10;0.95;;;25.80;89.60;;;;;;5048525;28;20029;-68
2023/02/24 04:28:24;;;;;;;5.00;0.85;;;25.60;89.10;;;;;;5040412;28;20024;-68
2023/02/24 04:30:55;;;;;;;2.60;0.43;;;25.50;89.10;;;;;;5037992;28;20040;-67
2023/02/24 04:33:22;;;;;;;2.95;0.60;;;25.50;86.60;;;;;;5046713;28;20782;-66
2023/02/24 04:35:52;;;;;;;4.05;0.63;;;25.40;87.60;;;;;;5058503;28;20056;-67
2023/02/24 04:38:19;;;;;;;4.75;0.80;;;25.40;86.50;;;;;;5048539;28;20037;-66
2023/02/24 04:40:48;;;;;;;4.47;0.60;;;25.40;88.30;;;;;;5056743;28;20063;-67
2023/02/24 04:43:16;;;;;;;4.10;0.68;;;25.40;88.70;;;;;;5054243;28;20570;-69
2023/02/24 04:45:44;;;;;;;6.00;0.47;;;25.70;86.80;;;;;;5053719;28;20448;-69
2023/02/24 04:48:12;;;;;;;4.47;0.90;;;26.30;87.20;;;;;;5052227;28;20083;-69
2023/02/24 04:50:42;;;;;;;6.35;1.02;;;27.00;86.80;;;;;;5052175;28;20021;-68
2023/02/24 04:53:15;;;;;;;2.05;0.60;;;27.60;86.40;;;;;;5056294;28;20023;-69
2023/02/24 04:55:48;;;;;;;3.40;0.73;;;28.10;78.60;;;;;;5052391;28;20508;-68
2023/02/24 04:58:18;;;;;;;6.97;0.98;;;28.50;74.70;;;;;;5052000;28;20075;-68
2023/02/24 05:00:48;;;;;;;1.75;0.63;;;28.50;73.90;;;;;;5052328;28;20037;-66
2023/02/24 05:03:16;;;;;;;4.32;0.60;;;29.00;76.50;;;;;;5058898;28;20048;-68
2023/02/24 05:06:00;;;;;;;4.15;0.80;;;29.20;72.80;;;;;;5051673;28;20474;-67
2023/02/24 05:08:28;;;;;;;;;;;29.30;66.40;;;;;;5053121;28;20040;-65
2023/02/24 05:10:57;;;;;;;2.55;0.43;;;29.10;66.70;;;;;;5052487;28;19931;-67
2023/02/24 05:13:30;;;;;;;3.70;0.70;;;28.90;67.40;;;;;;5054298;28;20477;-67
2023/02/24 05:16:08;;;;;;;3.23;0.60;;;28.50;68.00;;;;;;5053949;28;20025;-67
2023/02/24 05:18:36;;;;;;;3.22;0.80;;;28.40;70.40;;;;;;5052292;28;20064;-67
2023/02/24 05:23:57;;;;;;;3.38;0.70;;;28.10;69.90;;;;;;5043962;28;20422;-66
2023/02/24 05:26:26;;;;;;;3.05;0.70;;;27.70;69.50;;;;;;5057716;28;20098;-66
2023/02/24 05:28:58;;;;;;;3.35;0.93;;;27.40;70.20;;;;;;5053901;28;20445;-66
2023/02/24 05:31:28;;;;;;;5.70;1.13;;;27.00;71.80;;;;;;5061566;28;20049;-66
2023/02/24 05:33:58;;;;;;;4.10;0.57;;;27.00;72.80;;;;;;5054245;28;20013;-67
2023/02/24 05:36:29;;;;;;;3.45;0.50;;;26.70;73.20;;;;;;5053451;28;20037;-66
2023/02/24 05:38:57;;;;;;;2.25;0.50;;;26.60;73.80;;;;;;5051726;28;20029;-67
2023/02/24 05:41:34;;;;;;;1.55;0.60;;;26.50;75.30;;;;;;5052496;28;20073;-67
2023/02/24 05:44:08;;;;;;;2.85;0.40;;;26.50;75.90;;;;;;5053387;28;20085;-66
2023/02/24 05:46:38;;;;;;;4.00;0.70;;;26.60;75.50;;;;;;5054237;28;20117;-67
2023/02/24 05:49:13;;;;;;;2.88;0.85;;;26.80;74.70;;;;;;5046222;28;20439;-67
2023/02/24 05:51:53;;;;;;;3.67;0.88;;;26.70;76.50;;;;;;5050503;28;20026;-66
2023/02/24 05:54:31;;;;;;;4.80;0.70;;;26.60;79.00;;;;;;5044184;28;20025;-66
2023/02/24 05:57:23;;;;;;;3.55;0.73;;;26.20;80.50;;;;;;5052742;28;20033;-66
2023/02/24 05:59:52;;;;;;;4.95;0.88;;;25.80;82.80;;;;;;5048516;28;20032;-67
2023/02/24 06:02:26;;;;;;;4.07;1.02;;;25.50;86.00;;;;;;5057591;28;20032;-66
2023/02/24 06:04:54;;;;;;;7.80;0.98;;;25.30;87.30;;;;;;5050951;28;20136;-66
2023/02/24 06:07:27;;;;;;;5.25;0.70;;;25.00;88.00;;;;;;5058348;28;20774;-66
2023/02/24 06:09:57;;;;;;;3.80;0.68;;;24.80;90.00;;;;;;5049148;28;20036;-66
2023/02/24 06:12:30;;;;;;;3.97;0.68;;;24.80;90.50;;;;;;5050928;28;20386;-67
2023/02/24 06:14:58;;;;;;;2.50;0.35;;;24.80;90.10;;;;;;5051763;28;20025;-66
2023/02/24 06:17:26;;;;;;;5.15;0.82;;;24.60;90.20;;;;;;5050670;28;20016;-66
2023/02/24 06:19:54;;;;;;;3.67;0.70;;;24.50;90.40;;;;;;5056840;28;20576;-66
2023/02/24 06:22:24;;;;;;;2.30;0.77;;;24.50;91.30;;;;;;5060945;28;20679;-66
2023/02/24 06:24:53;;;;;;;2.35;0.60;;;24.60;91.90;;;;;;5046862;28;20329;-66
2023/02/24 06:27:23;;;;;;;9.23;0.80;;;24.80;90.00;;;;;;5047405;28;20086;-66
2023/02/24 06:29:52;;;;;;;3.33;0.77;;;25.00;90.00;;;;;;5056663;28;20016;-66
2023/02/24 06:32:22;;;;;;;3.92;0.80;;;25.00;89.90;;;;;;5048954;28;20049;-65
2023/02/24 06:34:50;;;;;;;4.07;0.65;;;25.00;89.70;;;;;;5043776;28;20036;-66
2023/02/24 06:37:18;;;;;;;3.10;0.88;;;25.00;90.10;;;;;;5046171;28;20528;-66
2023/02/24 06:39:45;;;;;;;4.35;0.90;;;25.00;90.40;;;;;;5060004;28;20045;-74
2023/02/24 06:42:13;;;;;;;4.82;0.65;;;25.10;91.40;;;;;;5045168;28;20070;-70
2023/02/24 06:44:41;;;;;;;5.28;0.82;;;25.20;91.70;;;;;;5041624;28;20616;-70
2023/02/24 06:47:12;;;;;;;5.53;1.33;;;25.20;90.70;;;;;;5042672;28;20557;-69
2023/02/24 06:49:41;;;;;;;5.03;1.02;;;25.20;91.40;;;;;;5052591;28;20101;-68
2023/02/24 06:52:10;;;;;;;5.43;1.45;;;25.30;92.10;;;;;;5056009;28;20039;-67
2023/02/24 06:54:37;;;;;;;6.63;1.20;;;25.40;91.20;;;;;;5046537;28;20036;-69
2023/02/24 06:57:08;;;;;;;3.40;1.80;;;25.50;91.80;;;;;;5049251;28;20036;-68
2023/02/24 06:59:36;;;;;;;4.25;0.70;;;25.50;90.80;;;;;;5048923;28;20025;-69
2023/02/24 07:02:03;;;;;;;3.95;1.15;;;25.50;91.40;;;;;;5039446;28;20025;-69
2023/02/24 07:04:42;;;;;;;3.95;1.67;;;25.40;91.70;;;;;;5045178;28;20025;-68
2023/02/24 07:07:13;;;;;;;6.25;0.82;;;25.40;92.10;;;;;;5054007;28;20033;-70
2023/02/24 07:09:41;;;;;;;3.88;0.47;;;25.30;92.50;;;;;;5048146;28;20020;-68
2023/02/24 07:12:09;;;;;;;4.22;0.90;;;25.30;92.90;;;;;;5047502;28;20025;-68
2023/02/24 07:14:37;;;;;;;3.58;0.63;;;25.30;92.90;;;;;;5043109;28;20039;-68
2023/02/24 07:17:05;;;;;;;2.10;0.55;;;25.20;92.90;;;;;;5047994;28;20036;-68
2023/02/24 07:19:32;;;;;;;3.10;0.55;;;25.00;93.00;;;;;;5052419;28;20146;-68
2023/02/24 07:22:02;;;;;;;5.50;1.23;;;24.80;92.90;;;;;;5041793;28;20031;-68
2023/02/24 07:24:44;;;;;;;5.38;0.70;;;24.70;93.30;;;;;;5049958;28;20017;-67
2023/02/24 07:27:22;;;;;;;3.88;0.60;;;24.60;92.50;;;;;;5046794;28;20048;-69
2023/02/24 07:29:53;;;;;;;3.38;0.63;;;24.50;92.80;;;;;;5043843;28;20375;-68
2023/02/24 07:32:21;;;;;;;9.43;1.10;;;24.40;92.90;;;;;;5050078;28;20208;-68
2023/02/24 07:34:48;;;;;;;4.97;1.08;;;24.40;92.60;;;;;;5044749;28;20036;-68
2023/02/24 07:37:16;;;;;;;4.47;0.80;;;24.40;92.50;;;;;;5044888;28;20323;-68
2023/02/24 07:39:43;;;;;;;3.17;0.68;;;24.40;92.40;;;;;;5040853;28;20083;-68
2023/02/24 07:42:12;;;;;;;3.17;0.50;;;24.30;92.00;;;;;;5048191;28;20025;-68
2023/02/24 07:44:41;;;;;;;4.32;1.00;;;24.30;90.60;;;;;;5042942;28;20029;-65
2023/02/24 07:47:08;;;;;;;2.95;0.70;;;24.20;90.30;;;;;;5052325;28;20021;-67
2023/02/24 07:49:40;;;;;;;2.30;0.60;;;24.10;89.70;;;;;;5041323;28;20082;-68
2023/02/24 07:52:07;;;;;;;3.20;0.70;;;23.90;90.60;;;;;;5044126;28;20511;-68
2023/02/24 07:54:38;;;;;;;2.75;1.40;;;23.80;90.60;;;;;;5051965;28;20021;-64
2023/02/24 07:57:12;;;;;;;1.77;0.60;;;23.80;91.50;;;;;;5059631;28;20112;-64
2023/02/24 07:59:43;;;;;;;4.53;0.73;;;23.60;92.30;;;;;;5045929;28;20106;-63
2023/02/24 08:02:12;;;;;;;5.18;0.60;;;23.50;93.20;;;;;;5055573;28;20025;-62
2023/02/24 08:04:43;;;;;;;1.83;0.52;;;23.30;93.60;;;;;;5047754;28;20553;-63
2023/02/24 08:07:13;;;;;;;4.20;0.80;;;23.20;93.10;;;;;;5034029;28;20485;-63
2023/02/24 08:10:08;;;;;;;3.55;0.73;;;23.10;92.50;;;;;;5045571;28;20032;-65
2023/02/24 08:12:34;;;;;;;4.90;0.52;;;23.00;92.90;;;;;;5040946;28;20393;-63
2023/02/24 08:15:15;;;;;;;3.10;0.70;;;22.80;93.40;;;;;;5052109;28;20040;-63
2023/02/24 08:17:46;;;;;;;4.47;0.85;;;22.70;94.10;;;;;;5053845;28;20041;-63
2023/02/24 08:22:50;;;;;;;3.10;0.60;;;22.40;96.60;;;;;;5043930;28;20505;-63
2023/02/24 08:25:21;;;;;;;2.90;1.30;;;22.30;98.30;;;;;;5029854;28;20054;-63
2023/02/24 08:27:56;;;;;;;3.95;1.00;;;22.20;99.50;;;;;;5041875;28;20080;-66
2023/02/24 08:30:28;;;;;;;2.80;0.68;;;22.00;99.90;;;;;;5056420;28;20094;-65
2023/02/24 08:32:58;;;;;;;3.38;0.65;;;21.90;99.90;;;;;;5041063;28;20040;-65
2023/02/24 08:35:34;;;;;;;4.05;0.90;;;21.80;99.90;;;;;;5046342;28;20028;-62
2023/02/24 08:38:07;;;;;;;5.75;0.95;;;21.70;99.90;;;;;;5044986;28;20057;-65
2023/02/24 08:40:38;;;;;;;7.70;0.83;;;21.70;99.90;;;;;;5045794;28;20040;-67
2023/02/24 08:46:36;;;;;;;3.78;1.13;;;21.50;99.90;;;;;;5035541;28;20152;-62
2023/02/24 08:49:00;;;;;;;5.47;0.80;;;21.40;99.90;;;;;;5049191;28;20405;-63
2023/02/24 08:51:33;;;;;;;4.40;0.95;;;21.30;99.90;;;;;;5049149;28;20020;-63
2023/02/24 08:54:14;;;;;;;1.70;0.80;;;21.20;99.90;;;;;;5049602;28;20541;-63
2023/02/24 08:56:48;;;;;;;3.70;1.20;;;21.20;99.90;;;;;;5051183;28;20021;-62
2023/02/24 09:04:50;;;;;;;4.88;0.80;;;21.00;99.90;;;;;;5040266;28;20059;-67
2023/02/24 09:07:23;;;;;;;4.18;0.80;;;20.90;99.90;;;;;;5041055;28;20431;-67
2023/02/24 09:09:55;;;;;;;2.70;0.88;;;20.80;99.90;;;;;;5039043;28;20502;-68
2023/02/24 09:12:29;;;;;;;7.97;1.63;;;20.80;99.90;;;;;;5046396;28;20025;-66
2023/02/24 09:14:59;;;;;;;;;;;20.80;99.90;;;;;;5044630;28;20052;-66
2023/02/24 09:20:55;;;;;;;8.13;1.02;;;20.60;99.90;;;;;;5045403;28;20037;-68
2023/02/24 09:23:18;;;;;;;2.47;0.68;;;20.50;99.90;;;;;;5047377;28;20746;-66
2023/02/24 09:25:53;;;;;;;7.72;0.90;;;20.40;99.90;;;;;;5045788;28;20029;-67
2023/02/24 09:28:24;;;;;;;3.00;1.48;;;20.40;99.90;;;;;;5061063;28;20020;-68
2023/02/24 09:30:53;;;;;;;2.88;0.98;;;20.20;99.90;;;;;;5052324;28;20174;-67
2023/02/24 09:33:40;;;;;;;2.30;0.75;;;20.20;99.90;;;;;;5061356;28;20037;-67
2023/02/24 09:36:43;;;;;;;5.18;1.02;;;20.00;99.90;;;;;;5042803;28;20554;-66
2023/02/24 09:44:47;;;;;;;4.85;0.95;;;19.80;99.90;;;;;;5054480;28;20086;-68
2023/02/24 09:47:38;;;;;;;3.70;0.90;;;19.60;99.90;;;;;;5036051;28;20034;-69
2023/02/24 09:50:22;;;;;;;4.47;0.68;;;19.50;99.90;;;;;;5048748;28;20045;-68
2023/02/24 09:52:55;;;;;;;6.38;0.80;;;19.40;99.90;;;;;;5063406;28;20024;-70
2023/02/24 09:55:59;;;;;;;4.78;0.85;;;19.40;99.90;;;;;;5044805;28;20266;-70
2023/02/24 09:58:38;;;;;;;6.17;1.40;;;19.40;99.90;;;;;;5033752;28;20045;-68
2023/02/24 10:01:41;;;;;;;5.72;0.77;;;19.30;99.90;;;;;;5038881;28;20328;-68
2023/02/24 10:04:47;;;;;;;5.18;0.90;;;19.20;99.90;;;;;;5046320;28;20481;-68
2023/02/24 10:07:17;;;;;;;5.70;1.05;;;19.10;99.90;;;;;;5034570;28;20066;-66
2023/02/24 10:09:48;;;;;;;5.32;1.17;;;18.90;99.90;;;;;;5060044;28;20104;-68
2023/02/24 10:12:16;;;;;;;4.65;0.85;;;18.90;99.90;;;;;;5043096;28;20028;-69
2023/02/24 10:15:19;;;;;;;6.20;1.70;;;18.90;99.90;;;;;;5052712;28;20025;-68
2023/02/24 10:17:57;;;;;;;6.53;1.30;;;18.80;99.90;;;;;;5044839;28;20037;-70
2023/02/24 10:20:43;;;;;;;4.47;0.88;;;18.60;99.90;;;;;;5053200;28;20036;-68
2023/02/24 10:23:16;;;;;;;3.38;0.70;;;18.50;99.90;;;;;;5033238;28;20131;-66
2023/02/24 10:26:02;;;;;;;5.18;0.80;;;18.40;99.90;;;;;;5047638;28;20032;-66
2023/02/24 10:28:52;;;;;;;4.35;0.90;;;18.30;99.90;;;;;;5059876;28;20389;-70
2023/02/24 10:31:29;;;;;;;7.72;0.90;;;18.20;99.90;;;;;;5039874;28;20032;-68
2023/02/24 10:34:08;;;;;;;4.25;1.15;;;18.10;99.90;;;;;;5044984;28;20574;-67
2023/02/24 10:36:40;;;;;;;2.97;0.90;;;18.00;99.90;;;;;;5060703;28;20381;-70
2023/02/24 10:39:19;;;;;;;3.30;0.90;;;17.90;99.90;;;;;;5051941;28;20028;-65
2023/02/24 10:42:14;;;;;;;6.03;0.80;;;17.90;99.90;;;;;;5056120;28;20782;-69
2023/02/24 10:44:53;;;;;;;7.88;1.10;;;17.80;99.90;;;;;;5059583;28;20024;-67
2023/02/24 10:47:30;;;;;;;5.35;1.60;;;17.70;99.90;;;;;;5037952;28;20020;-64
2023/02/24 10:50:00;;;;;;;11.07;5.22;;;17.70;99.90;;;;;;5055946;28;20389;-65
2023/02/24 10:58:27;;;;;;;1.55;0.77;;;17.70;99.90;;;;;;5041723;28;20659;-62
2023/02/24 11:03:46;;;;;;;4.97;1.10;;;17.60;99.90;;;;;;5034895;28;20036;-67
2023/02/24 11:09:42;;;;;;;9.40;0.70;;;17.50;99.90;;;;;;5060039;28;20025;-65
2023/02/24 11:17:32;;;;;;;4.90;0.88;;;17.30;99.90;;;;;;5038535;28;20035;-69
2023/02/24 11:20:00;;;;;;;4.57;0.77;;;17.30;99.90;;;;;;5055125;28;20072;-68
2023/02/24 11:22:41;;;;;;;2.55;0.80;;;17.20;99.90;;;;;;5059360;28;20409;-67
2023/02/24 11:25:36;;;;;;;6.40;0.90;;;17.10;99.90;;;;;;5047123;28;20032;-68
2023/02/24 11:28:04;;;;;;;6.50;1.35;;;17.00;99.90;;;;;;5063085;28;20099;-69
2023/02/24 11:30:45;;;;;;;3.38;1.05;;;16.80;99.90;;;;;;5047628;28;20033;-66
2023/02/24 11:33:28;;;;;;;8.23;1.40;;;16.80;99.90;;;;;;5045313;28;20044;-67
2023/02/24 11:36:08;;;;;;;4.15;0.73;;;16.70;99.90;;;;;;5054516;28;20033;-66
2023/02/24 11:38:39;;;;;;;7.90;1.30;;;16.70;99.90;;;;;;5059332;28;20079;-68
2023/02/24 11:41:09;;;;;;;3.30;1.13;;;16.60;99.90;;;;;;5047373;28;20036;-68
2023/02/24 11:43:42;;;;;;;7.22;0.93;;;16.60;99.90;;;;;;5050760;28;20032;-68
2023/02/24 11:46:18;;;;;;;5.22;0.82;;;16.60;99.90;;;;;;5058150;28;20237;-68
2023/02/24 11:48:57;;;;;;;7.32;0.93;;;16.60;99.90;;;;;;5047765;28;20028;-68
2023/02/24 11:51:30;;;;;;;3.03;0.95;;;16.60;99.90;;;;;;5053567;28;20044;-67
2023/02/24 11:54:13;;;;;;;3.95;1.17;;;16.50;99.90;;;;;;5053486;28;20126;-68
2023/02/24 11:56:49;;;;;;;3.65;0.90;;;16.50;99.90;;;;;;5060014;28;20041;-68
2023/02/24 11:59:27;;;;;;;3.20;0.88;;;16.50;99.90;;;;;;5041205;28;20033;-70
2023/02/24 12:02:16;;;;;;;6.90;1.13;;;16.50;99.90;;;;;;5041380;28;20087;-68
2023/02/24 12:04:56;;;;;;;3.70;0.90;;;16.50;99.90;;;;;;5060256;28;20036;-70
2023/02/24 12:07:29;;;;;;;4.53;0.98;;;16.40;99.90;;;;;;5029628;28;20021;-69
2023/02/24 12:10:23;;;;;;;6.47;1.23;;;16.40;99.90;;;;;;5047213;28;20682;-68
2023/02/24 12:13:44;;;;;;;7.82;1.90;;;16.40;99.90;;;;;;5041055;28;20040;-68
2023/02/24 12:16:32;;;;;;;5.05;0.98;;;16.40;99.90;;;;;;4999576;28;20110;-66
2023/02/24 12:19:18;;;;;;;2.88;1.00;;;16.40;99.90;;;;;;5045429;28;20067;-66
2023/02/24 12:22:13;;;;;;;2.80;0.93;;;16.30;99.90;;;;;;5043503;28;20075;-66
2023/02/24 12:24:48;;;;;;;8.93;1.35;;;16.30;99.90;;;;;;5035705;28;20060;-67
2023/02/24 12:27:40;;;;;;;6.50;1.45;;;16.20;99.90;;;;;;5038355;28;20073;-68
2023/02/24 12:30:47;;;;;;;8.63;1.10;;;16.20;99.90;;;;;;5041808;28;20032;-67
2023/02/24 12:33:41;;;;;;;10.82;1.52;;;16.10;99.90;;;;;;5037528;28;20076;-69
2023/02/24 12:36:51;;;;;;;5.43;1.70;;;16.10;99.90;;;;;;5036326;28;20030;-66
2023/02/24 12:39:37;;;;;;;7.82;1.90;;;16.20;99.90;;;;;;5008458;28;20132;-66
2023/02/24 12:42:29;;;;;;;5.82;1.20;;;16.20;99.90;;;;;;5037620;28;20018;-65
2023/02/24 12:45:22;;;;;;;5.32;1.30;;;16.20;99.90;;;;;;5052923;28;20028;-65
2023/02/24 12:48:03;;;;;;;4.65;1.35;;;16.10;99.90;;;;;;5044095;28;20493;-66
2023/02/24 12:51:08;;;;;;;5.15;1.15;;;16.10;99.90;;;;;;5043386;28;20100;-67
2023/02/24 12:54:22;;;;;;;2.83;1.33;;;16.10;99.90;;;;;;5044431;28;20045;-66
2023/02/24 12:56:52;;;;;;;4.45;1.92;;;16.10;99.90;;;;;;5050550;28;20279;-65
2023/02/24 12:59:26;;;;;;;2.65;0.90;;;16.00;99.90;;;;;;5051574;28;20051;-68
2023/02/24 13:02:20;;;;;;;3.53;1.33;;;16.00;99.90;;;;;;5051919;28;20021;-68
2023/02/24 13:04:54;;;;;;;4.53;1.10;;;16.00;99.90;;;;;;5038767;28;20043;-64
2023/02/24 13:07:39;;;;;;;3.13;0.75;;;15.90;99.90;;;;;;5043913;28;20063;-65
2023/02/24 13:10:26;;;;;;;9.43;1.35;;;15.80;99.90;;;;;;5052494;28;20359;-64
2023/02/24 13:13:14;;;;;;;4.65;1.20;;;15.80;99.90;;;;;;5052837;28;20021;-64
2023/02/24 13:16:01;;;;;;;5.25;1.45;;;15.90;99.90;;;;;;5053582;28;20040;-68
2023/02/24 13:18:38;;;;;;;4.18;1.15;;;16.00;99.90;;;;;;5052878;28;20028;-66
2023/02/24 13:21:21;;;;;;;8.85;1.20;;;16.00;99.90;;;;;;5051872;28;20462;-65
2023/02/24 13:24:01;;;;;;;5.57;1.48;;;16.00;99.90;;;;;;5032433;28;20017;-64
2023/02/24 13:26:32;;;;;;;7.40;1.13;;;16.10;99.90;;;;;;5032725;28;20124;-66
2023/02/24 13:29:11;;;;;;;6.05;1.67;;;16.10;99.90;;;;;;5042963;28;20024;-68
2023/02/24 13:31:51;;;;;;;5.13;0.98;;;16.10;99.90;;;;;;5050428;28;20101;-65
2023/02/24 13:34:32;;;;;;;2.85;1.10;;;16.10;99.90;;;;;;5048820;28;20025;-66
2023/02/24 13:37:00;;;;;;;3.10;1.10;;;16.00;99.90;;;;;;5050753;28;20167;-67
2023/02/24 13:39:43;;;;;;;2.50;0.90;;;16.00;99.90;;;;;;5050051;28;20098;-63
2023/02/24 13:42:31;;;;;;;4.50;0.93;;;15.90;99.90;;;;;;5051766;28;20013;-63
2023/02/24 13:45:12;;;;;;;6.60;1.33;;;15.80;99.90;;;;;;5052260;28;20021;-65
2023/02/24 13:48:03;;;;;;;5.95;1.17;;;15.80;99.90;;;;;;5051133;28;20074;-66
2023/02/24 13:50:53;;;;;;;5.75;1.88;;;15.70;99.90;;;;;;5049942;28;20425;-66
2023/02/24 13:53:22;;;;;;;1.13;0.60;;;15.60;99.90;;;;;;5049789;28;20017;-61
2023/02/24 13:55:57;;;;;;;4.07;1.35;;;15.50;99.90;;;;;;5048265;28;20021;-66
2023/02/24 13:58:51;;;;;;;1.60;0.80;;;15.60;99.90;;;;;;5048896;28;20021;-67
2023/02/24 14:01:20;;;;;;;8.30;2.05;;;15.60;99.90;;;;;;5046478;28;20108;-70
2023/02/24 14:04:05;;;;;;;7.70;2.53;;;15.60;99.90;;;;;;5049421;28;20061;-67
2023/02/24 14:06:33;;;;;;;7.28;2.63;;;15.70;99.90;;;;;;5041036;28;20418;-65
2023/02/24 14:09:04;;;;;;;7.57;3.13;;;15.80;99.90;;;;;;5048890;28;20024;-66
2023/02/24 14:11:36;;;;;;;6.47;2.70;;;15.80;99.90;;;;;;5048327;28;20068;-66
2023/02/24 14:14:04;;;;;;;10.25;1.88;;;15.90;99.90;;;;;;5050046;28;20048;-67
2023/02/24 14:16:41;;;;;;;10.85;2.15;;;15.90;99.90;;;;;;5050116;28;20082;-63
2023/02/24 14:19:15;;;;;;;21.27;4.13;;;16.00;99.90;;;;;;5049358;28;20029;-65